Time;durP1;ratioP1;P1;durP2;ratioP2;P2;SDS_P1;SDS_P2;PMS_P1;PMS_P2;Temp;Humidity;BMP_temperature;BMP_pressure;BME280_temperature;BME280_humidity;BME280_pressure;Samples;Min_cycle;Max_cycle;Signal;HPM_P1;HPM_P2
2022/12/01 00:01:05;;;;;;;5.25;2.22;;;;;;;3.65;86.97;102227.38;4922921;28;20488;-81
2022/12/01 00:03:30;;;;;;;5.05;1.80;;;;;;;3.61;87.24;102227.34;4938878;28;20030;-81
2022/12/01 00:06:00;;;;;;;5.10;3.72;;;;;;;3.41;86.83;102184.59;4954873;28;20027;-81
2022/12/01 00:08:27;;;;;;;4.53;1.85;;;;;;;3.49;86.19;102204.25;4938966;28;20037;-81
2022/12/01 00:10:52;;;;;;;6.18;2.45;;;;;;;3.55;86.25;102227.31;4938735;28;20133;-81
2022/12/01 00:13:18;;;;;;;3.38;2.33;;;;;;;3.56;86.46;102229.88;4954950;28;20535;-81
2022/12/01 00:15:43;;;;;;;3.65;2.28;;;;;;;3.44;86.57;102223.00;4938881;28;20519;-81
2022/12/01 00:18:09;;;;;;;3.42;2.60;;;;;;;3.44;86.54;102217.00;4953978;28;20061;-81
2022/12/01 00:20:34;;;;;;;1.48;1.30;;;;;;;3.49;86.31;102225.56;4922954;28;20046;-81
2022/12/01 00:23:00;;;;;;;2.88;2.33;;;;;;;3.46;85.58;102215.34;4939180;28;20377;-81
2022/12/01 00:25:26;;;;;;;4.68;2.25;;;;;;;3.47;86.05;102219.59;4954352;28;20030;-81
2022/12/01 00:27:51;;;;;;;4.35;2.53;;;;;;;3.53;86.14;102232.41;4954454;28;20026;-81
2022/12/01 00:30:18;;;;;;;4.00;3.03;;;;;;;3.53;85.75;102224.72;4922500;28;20552;-81
2022/12/01 00:32:43;;;;;;;5.05;4.28;;;;;;;3.34;86.02;102199.88;4938854;28;20022;-81
2022/12/01 00:35:09;;;;;;;5.55;2.33;;;;;;;3.31;86.02;102205.00;4938482;28;20031;-81
2022/12/01 00:37:34;;;;;;;4.72;2.28;;;;;;;3.38;86.53;102209.31;4938515;28;20085;-81
2022/12/01 00:40:00;;;;;;;3.10;1.92;;;;;;;3.52;85.98;102223.03;4938724;28;20034;-80
2022/12/01 00:42:26;;;;;;;4.85;2.67;;;;;;;3.57;85.92;102223.06;4954513;28;20034;-81
2022/12/01 00:44:51;;;;;;;3.03;2.00;;;;;;;3.51;85.97;102211.09;4938067;28;20037;-81
2022/12/01 00:47:17;;;;;;;7.32;2.67;;;;;;;3.46;85.99;102205.09;4938958;28;20034;-80
2022/12/01 00:49:44;;;;;;;3.28;2.85;;;;;;;3.43;85.66;102190.56;4954263;28;20054;-80
2022/12/01 00:52:10;;;;;;;4.78;2.80;;;;;;;3.60;85.40;102234.16;4954406;28;20408;-81
2022/12/01 00:54:36;;;;;;;6.55;2.80;;;;;;;3.47;85.93;102222.16;4938423;28;20057;-81
2022/12/01 00:57:01;;;;;;;2.00;1.42;;;;;;;3.32;86.16;102197.31;4938329;28;20436;-81
2022/12/01 00:59:27;;;;;;;3.72;2.63;;;;;;;3.40;87.10;102220.41;4937858;28;20113;-81
2022/12/01 01:01:52;;;;;;;1.83;1.48;;;;;;;3.39;87.09;102211.88;4938540;28;20031;-81
2022/12/01 01:04:18;;;;;;;4.78;3.00;;;;;;;3.42;87.49;102224.66;4954206;28;20037;-80
2022/12/01 01:06:43;;;;;;;4.30;2.63;;;;;;;3.05;87.17;102161.38;4954584;28;20034;-80
2022/12/01 01:09:09;;;;;;;4.13;1.38;;;;;;;3.37;87.56;102199.94;4954355;28;20507;-81
2022/12/01 01:11:35;;;;;;;4.53;2.45;;;;;;;3.54;87.67;102217.91;4922746;28;20027;-81
2022/12/01 01:14:00;;;;;;;2.47;1.63;;;;;;;3.40;87.38;102199.94;4937957;28;20031;-81
2022/12/01 01:16:26;;;;;;;3.92;3.45;;;;;;;3.54;87.67;102217.91;4954079;28;20558;-81
2022/12/01 01:18:52;;;;;;;2.75;2.05;;;;;;;3.47;87.44;102188.91;4922034;28;20397;-81
2022/12/01 01:21:19;;;;;;;3.30;2.17;;;;;;;3.59;87.20;102211.97;4938376;28;20035;-81
2022/12/01 01:23:45;;;;;;;4.22;2.72;;;;;;;3.56;87.51;102201.75;4938265;28;20034;-81
2022/12/01 01:26:16;;;;;;;8.25;3.35;;;;;;;3.54;87.65;102195.75;4954300;28;20031;-81
2022/12/01 01:28:42;;;;;;;3.75;2.42;;;;;;;3.52;87.08;102202.56;4924022;28;20034;-81
2022/12/01 01:31:08;;;;;;;4.40;3.00;;;;;;;3.44;87.54;102184.63;4942109;28;20074;-81
2022/12/01 01:33:34;;;;;;;4.53;3.25;;;;;;;3.46;86.57;102194.88;4941597;28;20034;-81
2022/12/01 01:36:00;;;;;;;11.32;2.53;;;;;;;3.38;86.92;102189.69;4941747;28;20027;-81
2022/12/01 01:38:26;;;;;;;4.40;2.85;;;;;;;3.37;86.88;102174.34;4925746;28;20023;-81
2022/12/01 01:40:51;;;;;;;2.65;1.83;;;;;;;3.25;87.24;102171.72;4941548;28;20170;-80
2022/12/01 01:43:36;;;;;;;7.20;3.35;;;;;;;3.35;87.80;102199.06;4925374;28;20026;-81
2022/12/01 01:46:02;;;;;;;3.63;2.83;;;;;;;3.25;87.43;102169.16;4943778;28;20452;-81
2022/12/01 01:48:27;;;;;;;4.38;3.95;;;;;;;3.29;87.53;102186.22;4925631;28;20130;-82
2022/12/01 01:50:53;;;;;;;11.48;5.05;;;;;;;3.29;87.49;102168.31;4941250;28;20023;-80
2022/12/01 01:53:18;;;;;;;5.63;3.55;;;;;;;3.21;87.15;102158.03;4925496;28;20171;-81
2022/12/01 01:55:44;;;;;;;6.03;4.25;;;;;;;3.35;87.12;102176.91;4956736;28;20488;-81
2022/12/01 01:58:09;;;;;;;3.65;2.47;;;;;;;3.35;87.05;102176.03;4957432;28;20039;-80
2022/12/01 02:00:35;;;;;;;8.60;4.22;;;;;;;3.38;87.30;102182.03;4925503;28;20034;-81
2022/12/01 02:03:01;;;;;;;4.50;3.40;;;;;;;3.21;87.15;102163.16;4925422;28;20066;-81
2022/12/01 02:05:30;;;;;;;2.13;2.03;;;;;;;3.36;87.67;102182.88;4925271;28;20069;-81
2022/12/01 02:07:56;;;;;;;8.25;3.55;;;;;;;3.35;87.61;102182.00;4957131;28;20412;-81
2022/12/01 02:10:23;;;;;;;3.72;2.05;;;;;;;3.16;87.66;102152.91;4940630;28;20163;-81
2022/12/01 02:13:05;;;;;;;5.05;3.42;;;;;;;3.32;87.48;102169.19;4941253;28;20030;-81
2022/12/01 02:15:59;;;;;;;2.63;2.42;;;;;;;3.41;87.22;102170.94;4925446;28;20034;-81
2022/12/01 02:19:16;;;;;;;10.65;3.15;;;;;;;3.32;87.22;102173.44;4947064;28;20127;-81
2022/12/01 02:21:56;;;;;;;4.32;3.30;;;;;;;3.36;87.57;102173.50;4956842;28;20054;-81
2022/12/01 02:24:31;;;;;;;4.38;2.00;;;;;;;3.41;86.91;102176.06;4956652;28;20093;-81
2022/12/01 02:27:07;;;;;;;3.75;1.73;;;;;;;3.32;86.97;102163.22;4956341;28;20113;-81
2022/12/01 02:30:03;;;;;;;5.72;2.83;;;;;;;3.47;86.79;102181.22;4940518;28;20480;-81
2022/12/01 02:33:12;;;;;;;7.28;2.33;;;;;;;3.41;87.12;102166.69;4956663;28;20023;-80
2022/12/01 02:35:50;;;;;;;8.25;2.97;;;;;;;3.50;86.87;102167.56;4955339;28;20480;-81
2022/12/01 02:39:00;;;;;;;4.30;2.90;;;;;;;3.46;86.69;102174.41;4940797;28;20512;-81
2022/12/01 02:41:44;;;;;;;8.52;2.60;;;;;;;3.43;86.02;102164.13;4931829;29;20035;-80
2022/12/01 02:44:22;;;;;;;4.65;2.88;;;;;;;3.40;85.98;102162.41;4955356;28;20472;-80
2022/12/01 02:46:58;;;;;;;4.93;3.40;;;;;;;3.30;86.70;102163.22;4957056;28;20100;-81
2022/12/01 02:49:27;;;;;;;6.50;3.17;;;;;;;3.29;87.10;102163.22;4941050;28;20037;-81
2022/12/01 02:51:52;;;;;;;3.92;2.58;;;;;;;3.32;86.60;102166.63;4940503;28;20114;-80
2022/12/01 02:54:18;;;;;;;2.30;1.77;;;;;;;3.26;87.11;102161.50;4955587;28;20030;-81
2022/12/01 02:56:43;;;;;;;2.58;1.80;;;;;;;3.25;87.36;102152.13;4939961;28;20096;-80
2022/12/01 02:59:10;;;;;;;10.75;3.42;;;;;;;3.32;86.96;102156.41;4940140;28;20034;-81
2022/12/01 03:01:45;;;;;;;6.78;3.50;;;;;;;3.30;87.26;102158.09;4924211;28;20034;-81
2022/12/01 03:04:34;;;;;;;10.43;3.47;;;;;;;3.32;87.48;102158.09;4955882;28;20058;-81
2022/12/01 03:07:21;;;;;;;4.18;2.35;;;;;;;3.09;87.49;102128.16;4973193;28;20031;-81
2022/12/01 03:10:20;;;;;;;5.70;3.15;;;;;;;3.31;87.93;102162.38;4972851;28;20062;-81
2022/12/01 03:12:52;;;;;;;5.65;3.03;;;;;;;3.32;87.20;102155.53;4973389;28;20081;-81
2022/12/01 03:15:36;;;;;;;2.55;2.35;;;;;;;3.40;87.58;102153.88;4955749;28;20484;-80
2022/12/01 03:18:16;;;;;;;8.93;4.18;;;;;;;3.35;87.64;102156.44;4973069;28;20069;-81
2022/12/01 03:21:09;;;;;;;7.22;4.75;;;;;;;3.21;87.92;102140.13;4973002;28;20036;-81
2022/12/01 03:23:40;;;;;;;7.13;3.70;;;;;;;3.20;87.61;102123.09;4941988;28;20121;-81
2022/12/01 03:26:07;;;;;;;5.28;3.38;;;;;;;3.28;87.63;102153.84;4955736;28;20039;-81
2022/12/01 03:28:36;;;;;;;3.20;2.58;;;;;;;3.10;87.92;102122.19;4939799;28;20031;-81
2022/12/01 03:31:04;;;;;;;13.07;3.13;;;;;;;3.27;87.61;102157.25;4924014;28;20035;-81
2022/12/01 03:33:37;;;;;;;8.45;3.78;;;;;;;3.39;87.63;102172.66;4923772;28;20041;-81
2022/12/01 03:36:14;;;;;;;5.78;2.30;;;;;;;3.42;87.23;102167.53;4924137;28;20027;-81
2022/12/01 03:38:40;;;;;;;4.53;3.03;;;;;;;3.25;86.69;102157.22;4955441;28;20031;-81
2022/12/01 03:41:09;;;;;;;6.53;2.97;;;;;;;3.17;87.16;102172.53;4939793;28;20125;-81
2022/12/01 03:43:36;;;;;;;6.32;4.22;;;;;;;3.12;87.26;102179.28;4955431;28;20026;-81
2022/12/01 03:46:08;;;;;;;7.20;3.60;;;;;;;3.19;87.17;102174.22;4939554;28;20115;-82
2022/12/01 03:48:33;;;;;;;5.32;3.30;;;;;;;2.95;87.04;102129.78;4955129;28;20033;-81
2022/12/01 03:51:09;;;;;;;9.77;4.88;;;;;;;3.14;87.14;102156.28;4938981;28;20032;-81
2022/12/01 03:53:59;;;;;;;6.05;3.13;;;;;;;3.25;86.89;102159.78;4938801;28;20543;-81
2022/12/01 03:56:26;;;;;;;9.68;2.53;;;;;;;3.13;86.84;102150.31;4955162;28;20476;-81
2022/12/01 03:58:53;;;;;;;7.05;3.53;;;;;;;3.02;86.74;102149.41;4938886;28;20034;-81
2022/12/01 04:01:19;;;;;;;3.78;3.10;;;;;;;3.23;86.78;102161.47;4939153;28;20030;-81
2022/12/01 04:03:45;;;;;;;5.70;4.00;;;;;;;3.13;87.08;102150.31;4923449;28;20178;-81
2022/12/01 04:06:11;;;;;;;3.20;2.92;;;;;;;3.35;86.95;102168.38;4938833;28;20030;-80
2022/12/01 04:08:36;;;;;;;5.03;3.25;;;;;;;3.06;86.94;102128.13;4938945;28;20042;-80
2022/12/01 04:12:28;;;;;;;5.38;2.65;;;;;;;3.25;87.03;102147.00;4954976;28;20034;-80
2022/12/01 04:13:47;;;;;;;9.55;3.85;;;;;;;3.30;86.00;102141.91;4944011;28;20037;-80
2022/12/01 04:16:13;;;;;;;7.53;3.00;;;;;;;3.39;86.36;102147.91;4938738;28;20035;-80
2022/12/01 04:18:38;;;;;;;5.57;3.13;;;;;;;3.33;85.53;102152.13;4938483;28;20444;-81
2022/12/01 04:21:04;;;;;;;6.63;4.63;;;;;;;3.38;85.98;102173.50;4954607;28;20484;-80
2022/12/01 04:26:13;;;;;;;4.93;3.00;;;;;;;3.09;86.54;102132.41;4957190;28;20589;-80
2022/12/01 04:28:38;;;;;;;4.40;3.53;;;;;;;3.29;86.59;102155.53;4954608;28;20035;-80
2022/12/01 04:31:04;;;;;;;3.17;2.50;;;;;;;3.35;85.95;102163.25;4922918;28;20026;-80
2022/12/01 04:33:29;;;;;;;4.28;3.60;;;;;;;3.52;85.65;102194.03;4938592;28;20023;-80
2022/12/01 04:35:58;;;;;;;6.55;4.93;;;;;;;3.58;86.15;102194.91;4922599;28;20539;-80
2022/12/01 04:38:24;;;;;;;8.68;4.68;;;;;;;3.41;85.45;102170.94;4944383;28;20035;-80
2022/12/01 04:40:49;;;;;;;13.45;3.78;;;;;;;3.25;85.99;102143.59;4952907;28;20030;-81
2022/12/01 04:43:15;;;;;;;12.10;4.65;;;;;;;3.38;86.37;102174.34;4971931;28;20038;-81
2022/12/01 04:45:40;;;;;;;6.70;3.70;;;;;;;3.46;86.70;102194.88;4922198;28;20035;-82
2022/12/01 04:48:06;;;;;;;10.68;3.58;;;;;;;3.50;86.41;102191.47;4938642;28;20034;-84
2022/12/01 04:50:31;;;;;;;4.20;3.17;;;;;;;3.42;86.40;102188.84;4937287;28;20035;-81
2022/12/01 04:52:57;;;;;;;6.43;4.25;;;;;;;3.49;85.94;102184.63;4938233;28;20049;-80
2022/12/01 04:55:24;;;;;;;6.82;3.17;;;;;;;3.45;85.87;102193.16;4922412;28;20034;-81
2022/12/01 04:57:50;;;;;;;3.13;1.95;;;;;;;3.21;85.82;102162.31;4954097;28;20033;-80
2022/12/01 05:00:15;;;;;;;3.22;2.40;;;;;;;3.48;85.86;102188.03;4922181;28;20031;-81
2022/12/01 05:02:42;;;;;;;4.43;3.22;;;;;;;3.22;85.51;102179.34;4938690;28;20030;-80
2022/12/01 05:05:11;;;;;;;4.65;3.28;;;;;;;3.25;85.68;102177.69;4957521;28;20055;-81
2022/12/01 05:07:37;;;;;;;5.53;2.22;;;;;;;3.31;85.57;102184.53;4958202;28;20121;-81
2022/12/01 05:10:02;;;;;;;4.05;3.50;;;;;;;3.32;84.98;102193.91;4925811;28;20481;-81
2022/12/01 05:12:28;;;;;;;6.25;3.50;;;;;;;3.23;84.86;102181.91;4941891;28;20039;-80
2022/12/01 05:14:53;;;;;;;3.42;2.67;;;;;;;3.34;85.49;102190.53;4957571;28;20030;-83
2022/12/01 05:17:19;;;;;;;8.70;3.50;;;;;;;3.26;84.78;102176.00;4962084;28;20054;-84
2022/12/01 05:22:28;;;;;;;7.25;4.75;;;;;;;3.32;85.49;102183.69;4979112;28;20108;-86
2022/12/01 05:24:54;;;;;;;3.92;3.50;;;;;;;3.29;84.99;102170.88;4994445;28;20480;-80
2022/12/01 05:27:19;;;;;;;5.03;2.85;;;;;;;3.32;84.59;102183.69;4976588;28;20031;-81
2022/12/01 05:29:45;;;;;;;8.38;2.95;;;;;;;3.25;84.50;102181.97;4941761;28;20042;-82
2022/12/01 05:32:10;;;;;;;5.72;4.35;;;;;;;3.23;85.34;102169.13;4977033;28;20026;-86
2022/12/01 05:34:36;;;;;;;5.18;3.85;;;;;;;3.31;85.34;102181.97;4940790;28;20114;-86
2022/12/01 05:37:01;;;;;;;5.60;4.38;;;;;;;3.23;85.07;102181.06;4957486;28;20035;-89
2022/12/01 05:39:27;;;;;;;5.97;3.55;;;;;;;3.16;85.67;102185.31;4979945;28;20030;-86
2022/12/01 05:41:52;;;;;;;7.35;3.75;;;;;;;3.22;86.07;102180.22;4942572;28;20066;-89
2022/12/01 05:44:18;;;;;;;13.00;5.85;;;;;;;3.18;86.25;102178.50;4927418;28;20050;-85
2022/12/01 05:46:44;;;;;;;9.68;4.63;;;;;;;3.13;86.29;102159.69;4962640;28;20033;-91
2022/12/01 05:49:09;;;;;;;7.55;5.40;;;;;;;3.28;86.01;102193.03;4925058;28;20034;-85
2022/12/01 05:51:34;;;;;;;8.10;5.05;;;;;;;3.26;86.04;102181.09;4925466;28;20062;-86
2022/12/01 05:54:00;;;;;;;6.35;3.30;;;;;;;3.30;85.94;102186.22;4964408;28;20030;-87
2022/12/01 05:56:26;;;;;;;11.77;4.63;;;;;;;3.36;86.15;102183.72;4940535;28;20556;-83
2022/12/01 05:58:51;;;;;;;8.27;4.93;;;;;;;3.43;85.93;102190.56;4956443;28;20065;-81
2022/12/01 06:01:16;;;;;;;5.70;4.78;;;;;;;3.38;84.72;102183.72;4940780;28;20085;-89
2022/12/01 06:03:42;;;;;;;11.45;5.40;;;;;;;3.14;84.94;102172.47;4950215;28;20045;-84
2022/12/01 06:06:07;;;;;;;7.28;4.22;;;;;;;3.26;85.49;102186.22;4940974;28;20035;-81
2022/12/01 06:08:33;;;;;;;11.38;5.55;;;;;;;3.21;85.76;102187.88;4975735;28;20045;-82
2022/12/01 06:10:58;;;;;;;11.50;5.70;;;;;;;3.27;86.15;102193.03;4959464;28;20114;-81
2022/12/01 06:13:24;;;;;;;8.55;5.97;;;;;;;3.19;85.94;102184.47;4959737;28;20030;-87
2022/12/01 06:16:01;;;;;;;5.80;4.95;;;;;;;3.22;85.98;102195.56;4944077;28;20434;-85
2022/12/01 06:18:26;;;;;;;3.45;3.13;;;;;;;3.31;85.04;102202.44;4950152;28;20049;-84
2022/12/01 06:20:52;;;;;;;24.95;13.73;;;;;;;3.28;85.87;102193.03;4943117;28;20035;-95
2022/12/01 06:23:17;;;;;;;11.73;6.45;;;;;;;3.19;85.24;102185.31;4959781;28;20065;-91
2022/12/01 06:25:43;;;;;;;8.38;4.78;;;;;;;3.21;85.65;102193.00;4923131;29;20497;-92
2022/12/01 06:28:08;;;;;;;9.73;4.90;;;;;;;3.15;86.00;102192.13;4966087;28;20035;-90
2022/12/01 06:30:34;;;;;;;6.45;2.97;;;;;;;3.17;85.41;102192.13;4953437;28;20037;-90
2022/12/01 06:33:00;;;;;;;5.80;3.67;;;;;;;3.09;85.21;102188.66;4945710;28;20495;-92
2022/12/01 06:35:25;;;;;;;8.02;4.68;;;;;;;3.04;85.18;102191.16;4942448;28;20031;-87
2022/12/01 06:37:53;;;;;;;5.25;4.18;;;;;;;3.07;85.71;102201.44;4963055;28;20417;-87
2022/12/01 06:40:18;;;;;;;7.63;3.72;;;;;;;3.11;85.74;102197.19;4934496;28;20113;-85
2022/12/01 06:42:44;;;;;;;14.85;3.88;;;;;;;3.07;85.58;102201.44;4922170;28;20062;-91
2022/12/01 06:45:10;;;;;;;9.82;4.15;;;;;;;2.99;86.03;102203.06;4928079;28;20027;-79
2022/12/01 06:47:35;;;;;;;9.90;7.40;;;;;;;3.15;86.18;102210.03;4954781;28;20027;-80
2022/12/01 06:50:01;;;;;;;10.32;4.97;;;;;;;3.21;85.46;102205.78;4949942;28;20038;-88
2022/12/01 06:52:27;;;;;;;4.72;2.83;;;;;;;3.25;85.51;102215.22;4926406;28;20098;-91
2022/12/01 06:54:52;;;;;;;4.43;3.53;;;;;;;3.19;84.97;102198.09;4946971;28;20121;-85
2022/12/01 06:57:18;;;;;;;11.63;5.18;;;;;;;3.26;85.25;102191.34;4955400;28;20027;-85
2022/12/01 06:59:43;;;;;;;10.57;6.38;;;;;;;3.19;85.50;102175.09;4956337;28;20068;-79
2022/12/01 07:02:12;;;;;;;10.10;5.32;;;;;;;3.22;85.41;102184.47;4942930;28;20448;-81
2022/12/01 07:04:37;;;;;;;9.88;5.32;;;;;;;3.43;85.51;102202.50;4929837;28;20035;-91
2022/12/01 07:07:06;;;;;;;10.52;3.78;;;;;;;3.41;84.49;102199.94;4952476;28;20030;-87
2022/12/01 07:09:32;;;;;;;7.05;6.07;;;;;;;3.42;85.32;102209.31;4967044;28;20030;-90
2022/12/01 07:11:57;;;;;;;7.50;2.75;;;;;;;3.33;84.44;102186.25;4954970;28;20503;-83
2022/12/01 07:14:25;;;;;;;7.80;3.90;;;;;;;3.34;83.92;102200.78;4948213;29;20027;-90
2022/12/01 07:16:51;;;;;;;9.23;5.50;;;;;;;3.17;82.91;102187.88;4923923;28;20061;-78
2022/12/01 07:19:16;;;;;;;5.65;2.92;;;;;;;3.13;83.90;102182.72;4954784;28;20027;-84
2022/12/01 07:21:42;;;;;;;7.90;4.88;;;;;;;3.29;84.24;102212.66;4942038;29;20035;-88
2022/12/01 07:24:07;;;;;;;12.70;4.63;;;;;;;3.14;84.19;102192.09;4943748;28;20081;-90
2022/12/01 07:26:33;;;;;;;7.90;4.75;;;;;;;3.30;84.30;102205.84;4950867;28;20042;-86
2022/12/01 07:28:58;;;;;;;8.90;5.35;;;;;;;3.24;84.12;102198.13;4939631;28;20078;-90
2022/12/01 07:31:24;;;;;;;13.05;9.77;;;;;;;3.27;84.47;102203.28;4929831;29;20050;-85
2022/12/01 07:33:50;;;;;;;4.55;4.10;;;;;;;3.25;83.22;102215.22;4938219;28;20476;-82
2022/12/01 07:36:15;;;;;;;5.03;4.03;;;;;;;3.11;83.57;102195.50;4942688;28;20034;-84
2022/12/01 07:38:41;;;;;;;8.95;3.45;;;;;;;3.24;83.63;102214.31;4950181;28;20035;-81
2022/12/01 07:41:19;;;;;;;7.35;3.90;;;;;;;3.24;84.03;102203.22;4968171;28;20038;-84
2022/12/01 07:43:45;;;;;;;8.60;4.38;;;;;;;3.14;84.30;102189.53;4935702;28;20528;-86
2022/12/01 07:46:14;;;;;;;4.60;3.22;;;;;;;3.33;84.56;102223.75;4932391;28;20069;-86
2022/12/01 07:48:40;;;;;;;8.07;5.38;;;;;;;3.30;84.38;102209.25;4950554;28;20031;-86
2022/12/01 07:51:06;;;;;;;11.98;5.47;;;;;;;3.30;84.67;102205.84;4927380;28;20053;-88
2022/12/01 07:53:31;;;;;;;6.80;5.05;;;;;;;3.22;84.34;102187.88;4936014;29;20511;-84
2022/12/01 07:55:57;;;;;;;10.80;6.03;;;;;;;3.41;84.19;102204.19;4945632;28;20030;-84
2022/12/01 07:58:23;;;;;;;7.53;5.00;;;;;;;3.44;84.58;102201.66;4949648;28;20116;-83
2022/12/01 08:00:48;;;;;;;10.18;6.38;;;;;;;3.47;84.40;102213.63;4938457;28;20027;-89
2022/12/01 08:03:14;;;;;;;13.55;6.05;;;;;;;3.39;84.58;102203.34;4934897;29;20062;-85
2022/12/01 08:05:39;;;;;;;10.32;5.22;;;;;;;3.41;83.67;102207.63;4980560;28;20035;-80
2022/12/01 08:08:05;;;;;;;8.10;5.47;;;;;;;3.39;84.00;102219.53;4931083;28;20477;-81
2022/12/01 08:10:31;;;;;;;8.98;4.85;;;;;;;3.45;83.86;102205.94;4931506;29;20031;-82
2022/12/01 08:12:56;;;;;;;6.65;4.72;;;;;;;3.41;84.28;102196.53;4971769;28;20514;-81
2022/12/01 08:15:22;;;;;;;7.70;5.03;;;;;;;3.45;84.24;102190.59;4952490;28;20431;-82
2022/12/01 08:17:47;;;;;;;6.80;4.35;;;;;;;3.46;84.65;102199.97;4940825;29;20445;-82
2022/12/01 08:20:14;;;;;;;9.38;4.68;;;;;;;3.57;84.18;102208.56;4955405;28;20042;-88
2022/12/01 08:22:40;;;;;;;8.45;4.28;;;;;;;3.48;84.84;102193.16;4937317;29;20027;-79
2022/12/01 08:25:06;;;;;;;17.55;7.35;;;;;;;3.60;85.18;102200.91;4935080;28;20552;-82
2022/12/01 08:27:31;;;;;;;11.88;5.80;;;;;;;3.66;84.50;102211.19;4953727;28;20257;-80
2022/12/01 08:29:56;;;;;;;10.90;5.18;;;;;;;3.74;83.67;102203.53;4943042;29;20035;-84
2022/12/01 08:32:22;;;;;;;8.57;4.18;;;;;;;3.65;83.74;102196.66;4954150;28;20041;-92
2022/12/01 08:34:47;;;;;;;6.90;4.63;;;;;;;3.73;84.07;102210.34;4936071;29;20035;-85
2022/12/01 08:37:13;;;;;;;8.57;4.90;;;;;;;3.70;83.96;102197.53;4952001;28;21139;-92
2022/12/01 08:39:39;;;;;;;9.48;4.75;;;;;;;3.57;83.15;102171.88;4933819;28;20026;-85
2022/12/01 08:42:04;;;;;;;8.20;3.25;;;;;;;3.70;82.75;102200.09;4956959;28;20031;-79
2022/12/01 08:44:30;;;;;;;6.15;4.25;;;;;;;3.63;84.77;102157.38;4932522;28;20057;-82
2022/12/01 08:46:55;;;;;;;8.25;4.35;;;;;;;3.68;83.35;102171.06;4954604;28;20505;-86
2022/12/01 08:49:21;;;;;;;7.60;3.88;;;;;;;3.80;82.19;102205.25;4953297;28;20035;-82
2022/12/01 08:51:47;;;;;;;10.07;6.82;;;;;;;3.71;82.61;102196.69;4954965;28;20126;-79
2022/12/01 08:54:13;;;;;;;6.18;4.40;;;;;;;3.74;82.55;102195.84;4954637;29;20031;-92
2022/12/01 08:56:40;;;;;;;8.10;6.13;;;;;;;3.69;82.96;102183.03;4953576;28;20409;-81
2022/12/01 08:59:06;;;;;;;11.20;6.32;;;;;;;3.65;82.85;102200.94;4938878;28;20038;-82
2022/12/01 09:01:32;;;;;;;13.25;6.38;;;;;;;3.66;82.73;102198.38;4941947;29;20035;-82
2022/12/01 09:04:09;;;;;;;10.18;6.13;;;;;;;3.64;82.44;102196.66;4954179;29;20084;-79
2022/12/01 09:06:40;;;;;;;27.33;15.88;;;;;;;3.59;83.54;102183.84;4967480;28;20515;-89
2022/12/01 09:09:08;;;;;;;13.68;6.50;;;;;;;3.57;82.96;102182.97;4950177;29;20094;-86
2022/12/01 09:11:33;;;;;;;6.38;4.40;;;;;;;3.70;82.79;102177.06;4950121;29;20162;-82
2022/12/01 09:14:02;;;;;;;14.70;6.25;;;;;;;3.37;81.89;102159.00;4951578;29;20031;-81
2022/12/01 09:16:28;;;;;;;6.72;4.68;;;;;;;3.56;82.47;102200.88;4942904;28;20051;-81
2022/12/01 09:18:53;;;;;;;10.82;7.10;;;;;;;3.61;82.71;102178.72;4957203;28;20514;-82
2022/12/01 09:21:21;;;;;;;9.10;5.50;;;;;;;3.46;82.08;102166.72;4948302;28;20126;-85
2022/12/01 09:23:46;;;;;;;13.15;5.88;;;;;;;3.59;81.96;102180.41;4944379;29;20054;-80
2022/12/01 09:26:12;;;;;;;13.15;6.70;;;;;;;3.67;82.94;102187.28;4967229;28;20039;-79
2022/12/01 09:28:37;;;;;;;8.90;5.50;;;;;;;3.64;82.22;102191.56;4940346;28;20031;-87
2022/12/01 09:31:07;;;;;;;6.90;5.00;;;;;;;3.47;81.99;102176.09;4941659;28;20082;-81
2022/12/01 09:33:33;;;;;;;4.93;4.40;;;;;;;3.29;81.83;102145.31;4938199;28;20083;-86
2022/12/01 09:35:59;;;;;;;8.02;5.53;;;;;;;3.48;82.28;102172.69;4944924;28;20062;-84
2022/12/01 09:38:25;;;;;;;9.40;5.18;;;;;;;3.45;82.80;102182.91;4951861;28;20070;-84
2022/12/01 09:40:50;;;;;;;15.07;6.13;;;;;;;3.41;83.38;102171.78;4949361;28;20030;-84
2022/12/01 09:43:21;;;;;;;8.50;5.95;;;;;;;3.51;83.92;102171.84;4922348;28;20046;-82
2022/12/01 09:46:01;;;;;;;7.43;5.85;;;;;;;3.29;84.01;102120.56;4937673;29;20061;-82
2022/12/01 09:48:42;;;;;;;10.48;5.85;;;;;;;3.53;84.23;102165.88;4956075;28;20038;-78
2022/12/01 09:51:13;;;;;;;12.68;6.97;;;;;;;3.63;83.11;102175.31;4947375;28;20531;-82
2022/12/01 09:53:38;;;;;;;6.88;5.82;;;;;;;3.34;83.26;102130.81;4936199;29;20042;-87
2022/12/01 09:56:05;;;;;;;7.78;5.47;;;;;;;3.62;83.21;102177.88;4940582;28;20026;-80
2022/12/01 09:58:30;;;;;;;8.73;5.03;;;;;;;3.59;83.36;102154.81;4949597;29;20505;-79
2022/12/01 10:00:55;;;;;;;11.20;4.10;;;;;;;3.64;83.19;102145.47;4972609;28;20031;-84
2022/12/01 10:03:32;;;;;;;9.73;4.65;;;;;;;3.59;83.24;102135.22;4927477;28;20049;-82
2022/12/01 10:06:09;;;;;;;8.63;4.20;;;;;;;3.78;82.27;102166.00;4956622;28;20114;-82
2022/12/01 10:08:36;;;;;;;10.55;6.15;;;;;;;3.71;82.16;102165.97;4954877;28;20031;-91
2022/12/01 10:11:35;;;;;;;6.93;4.88;;;;;;;3.67;83.00;102153.16;4924731;28;20027;-87
2022/12/01 10:14:00;;;;;;;12.02;5.30;;;;;;;3.72;82.93;102156.56;4936428;28;20050;-83
2022/12/01 10:16:31;;;;;;;6.82;5.97;;;;;;;3.71;82.47;102153.16;4951434;28;20062;-82
2022/12/01 10:19:07;;;;;;;11.55;4.75;;;;;;;3.65;82.54;102150.59;4950837;29;20434;-82
2022/12/01 10:21:57;;;;;;;11.70;6.38;;;;;;;3.55;83.25;102159.09;4925592;28;20071;-80
2022/12/01 10:24:48;;;;;;;8.32;5.28;;;;;;;3.59;83.97;102158.25;4970112;28;20027;-84
2022/12/01 10:27:29;;;;;;;12.30;5.43;;;;;;;3.48;83.56;102157.34;4967218;28;20118;-82
2022/12/01 10:30:03;;;;;;;7.05;5.03;;;;;;;3.52;84.01;102161.59;4965060;28;20525;-89
2022/12/01 10:32:33;;;;;;;5.82;3.72;;;;;;;3.38;83.40;102132.56;4976051;28;20081;-80
2022/12/01 10:34:59;;;;;;;8.57;4.63;;;;;;;3.39;83.72;102137.69;4972158;28;20031;-79
2022/12/01 10:37:26;;;;;;;9.63;4.38;;;;;;;3.47;84.03;102155.63;4939694;28;20623;-82
2022/12/01 10:39:52;;;;;;;3.58;2.53;;;;;;;3.33;84.12;102152.13;4947440;28;20037;-84
2022/12/01 10:42:23;;;;;;;8.75;5.03;;;;;;;3.38;83.35;102145.34;4936800;28;20024;-79
2022/12/01 10:44:49;;;;;;;17.85;11.55;;;;;;;3.32;85.38;102135.06;4934384;28;20063;-80
2022/12/01 10:47:20;;;;;;;9.30;6.68;;;;;;;3.59;86.01;102121.56;4953622;28;20122;-81
2022/12/01 10:49:46;;;;;;;6.82;4.38;;;;;;;3.64;82.68;102141.22;4950850;28;20039;-81
2022/12/01 10:52:38;;;;;;;9.27;5.22;;;;;;;3.61;82.13;102137.78;4950030;29;20027;-80
2022/12/01 10:55:25;;;;;;;9.18;7.35;;;;;;;3.61;83.02;102130.09;4939723;28;20042;-80
2022/12/01 10:57:52;;;;;;;8.55;5.47;;;;;;;3.16;82.89;102073.63;4962212;28;20038;-81
2022/12/01 11:00:25;;;;;;;8.00;4.80;;;;;;;3.46;83.06;102133.47;4938711;28;20038;-81
2022/12/01 11:02:51;;;;;;;14.13;7.15;;;;;;;3.33;83.00;102126.56;4954716;28;20114;-82
2022/12/01 11:05:24;;;;;;;5.43;3.67;;;;;;;3.27;83.78;102126.53;4941590;28;20039;-85
2022/12/01 11:07:50;;;;;;;4.88;3.45;;;;;;;3.19;83.88;102117.97;4926341;29;20046;-81
2022/12/01 11:10:18;;;;;;;9.23;5.75;;;;;;;3.22;84.46;102138.44;4942856;28;20035;-93
2022/12/01 11:13:14;;;;;;;14.85;7.35;;;;;;;3.13;85.21;102127.31;4970738;28;20062;-86
2022/12/01 11:15:47;;;;;;;5.35;4.63;;;;;;;3.08;84.62;102110.25;4918547;28;20035;-83
2022/12/01 11:18:42;;;;;;;4.25;3.33;;;;;;;3.17;85.34;102129.03;4920308;28;20422;-87
2022/12/01 11:21:11;;;;;;;8.52;4.38;;;;;;;3.20;85.42;102129.91;4941940;28;20047;-80
2022/12/01 11:23:43;;;;;;;11.95;7.00;;;;;;;2.87;85.80;102080.31;4933600;28;20031;-86
2022/12/01 11:26:25;;;;;;;7.80;4.10;;;;;;;3.21;85.84;102127.34;4954914;28;20034;-84
2022/12/01 11:28:51;;;;;;;4.97;2.80;;;;;;;3.20;85.37;102135.03;4967034;28;20034;-84
2022/12/01 11:31:17;;;;;;;5.90;4.00;;;;;;;3.17;85.53;102118.81;4952566;28;20034;-87
2022/12/01 11:33:49;;;;;;;5.45;3.08;;;;;;;3.01;85.58;102093.16;4934982;28;20027;-85
2022/12/01 11:36:41;;;;;;;5.97;4.55;;;;;;;3.24;85.17;102129.06;4935013;29;20030;-82
2022/12/01 11:39:06;;;;;;;7.25;4.70;;;;;;;3.24;84.24;102116.28;4963328;28;20042;-85
2022/12/01 11:41:38;;;;;;;9.45;6.30;;;;;;;3.15;84.42;102107.72;4954412;28;20572;-82
2022/12/01 11:44:04;;;;;;;8.63;5.93;;;;;;;3.26;85.28;102125.69;4919133;28;20058;-85
2022/12/01 11:46:35;;;;;;;5.20;4.00;;;;;;;3.28;84.78;102130.81;4934903;28;20143;-82